sensor_id;sensor_type;location;lat;lon;timestamp;pressure;altitude;pressure_sealevel;temperature;humidity
65190;BME280;51777;53.570;9.984;2022-07-17T00:01:22;102278.66;;;13.75;78.53
65190;BME280;51777;53.570;9.984;2022-07-17T00:03:48;102282.59;;;13.70;79.14
65190;BME280;51777;53.570;9.984;2022-07-17T00:06:13;102285.47;;;13.67;79.61
65190;BME280;51777;53.570;9.984;2022-07-17T00:08:39;102285.59;;;13.65;79.85
65190;BME280;51777;53.570;9.984;2022-07-17T00:11:05;102286.41;;;13.66;80.04
65190;BME280;51777;53.570;9.984;2022-07-17T00:13:30;102282.28;;;13.63;80.04
65190;BME280;51777;53.570;9.984;2022-07-17T00:15:56;102279.09;;;13.60;80.75
65190;BME280;51777;53.570;9.984;2022-07-17T00:18:21;102285.38;;;13.57;80.72
65190;BME280;51777;53.570;9.984;2022-07-17T00:20:47;102285.78;;;13.52;80.88
65190;BME280;51777;53.570;9.984;2022-07-17T00:23:12;102284.97;;;13.52;81.00
65190;BME280;51777;53.570;9.984;2022-07-17T00:25:38;102286.69;;;13.51;81.46
65190;BME280;51777;53.570;9.984;2022-07-17T00:28:04;102289.56;;;13.48;81.72
65190;BME280;51777;53.570;9.984;2022-07-17T00:30:30;102292.41;;;13.45;82.29
65190;BME280;51777;53.570;9.984;2022-07-17T00:32:55;102295.84;;;13.46;82.28
65190;BME280;51777;53.570;9.984;2022-07-17T00:35:21;102295.50;;;13.39;83.02
65190;BME280;51777;53.570;9.984;2022-07-17T00:37:48;102291.09;;;13.30;84.04
65190;BME280;51777;53.570;9.984;2022-07-17T00:40:18;102286.63;;;13.21;84.31
65190;BME280;51777;53.570;9.984;2022-07-17T00:42:43;102287.31;;;13.23;84.44
65190;BME280;51777;53.570;9.984;2022-07-17T00:45:10;102286.63;;;13.21;84.92
65190;BME280;51777;53.570;9.984;2022-07-17T00:48:00;102277.31;;;13.18;85.17
65190;BME280;51777;53.570;9.984;2022-07-17T00:50:32;102279.78;;;13.20;85.31
65190;BME280;51777;53.570;9.984;2022-07-17T00:52:58;102274.72;;;13.18;85.20
65190;BME280;51777;53.570;9.984;2022-07-17T00:55:24;102279.31;;;13.15;85.28
65190;BME280;51777;53.570;9.984;2022-07-17T00:57:50;102270.81;;;13.13;85.58
65190;BME280;51777;53.570;9.984;2022-07-17T01:00:17;102278.72;;;13.11;85.57
65190;BME280;51777;53.570;9.984;2022-07-17T01:02:50;102280.50;;;13.11;85.82
65190;BME280;51777;53.570;9.984;2022-07-17T01:05:18;102282.13;;;13.12;85.67
65190;BME280;51777;53.570;9.984;2022-07-17T01:07:44;102275.44;;;13.09;85.67
65190;BME280;51777;53.570;9.984;2022-07-17T01:10:11;102276.00;;;13.13;85.83
65190;BME280;51777;53.570;9.984;2022-07-17T01:12:36;102285.44;;;13.14;85.53
65190;BME280;51777;53.570;9.984;2022-07-17T01:15:03;102282.84;;;13.14;85.59
65190;BME280;51777;53.570;9.984;2022-07-17T01:17:30;102281.44;;;13.10;85.33
65190;BME280;51777;53.570;9.984;2022-07-17T01:19:56;102282.66;;;13.06;85.53
65190;BME280;51777;53.570;9.984;2022-07-17T01:22:21;102293.59;;;13.09;85.30
65190;BME280;51777;53.570;9.984;2022-07-17T01:24:47;102292.66;;;13.10;85.06
65190;BME280;51777;53.570;9.984;2022-07-17T01:27:12;102279.94;;;13.07;84.87
65190;BME280;51777;53.570;9.984;2022-07-17T01:29:38;102293.03;;;13.06;84.88
65190;BME280;51777;53.570;9.984;2022-07-17T01:32:05;102295.63;;;13.06;85.18
65190;BME280;51777;53.570;9.984;2022-07-17T01:34:30;102299.31;;;13.03;85.24
65190;BME280;51777;53.570;9.984;2022-07-17T01:36:56;102294.44;;;13.10;85.56
65190;BME280;51777;53.570;9.984;2022-07-17T01:39:22;102299.97;;;13.16;85.03
65190;BME280;51777;53.570;9.984;2022-07-17T01:42:07;102306.34;;;13.12;85.11
65190;BME280;51777;53.570;9.984;2022-07-17T01:44:33;102296.06;;;13.11;85.10
65190;BME280;51777;53.570;9.984;2022-07-17T01:46:58;102297.03;;;13.10;85.44
65190;BME280;51777;53.570;9.984;2022-07-17T01:49:23;102302.78;;;13.13;85.42
65190;BME280;51777;53.570;9.984;2022-07-17T01:51:49;102299.38;;;13.13;84.85
65190;BME280;51777;53.570;9.984;2022-07-17T01:54:15;102302.78;;;13.13;84.77
65190;BME280;51777;53.570;9.984;2022-07-17T01:56:40;102304.13;;;13.08;85.15
65190;BME280;51777;53.570;9.984;2022-07-17T01:59:06;102309.69;;;13.03;85.14
65190;BME280;51777;53.570;9.984;2022-07-17T02:01:31;102310.28;;;13.07;85.70
65190;BME280;51777;53.570;9.984;2022-07-17T02:03:57;102298.53;;;13.12;84.85
65190;BME280;51777;53.570;9.984;2022-07-17T02:06:22;102303.16;;;13.20;84.28
65190;BME280;51777;53.570;9.984;2022-07-17T02:08:47;102293.00;;;13.28;83.97
65190;BME280;51777;53.570;9.984;2022-07-17T02:11:18;102292.22;;;13.37;83.91
65190;BME280;51777;53.570;9.984;2022-07-17T02:13:44;102294.69;;;13.39;83.29
65190;BME280;51777;53.570;9.984;2022-07-17T02:16:09;102289.59;;;13.16;84.34
65190;BME280;51777;53.570;9.984;2022-07-17T02:18:35;102302.09;;;13.11;84.44
65190;BME280;51777;53.570;9.984;2022-07-17T02:21:01;102300.00;;;13.05;84.98
65190;BME280;51777;53.570;9.984;2022-07-17T02:23:26;102295.88;;;13.03;85.05
65190;BME280;51777;53.570;9.984;2022-07-17T02:25:53;102303.47;;;12.94;85.18
65190;BME280;51777;53.570;9.984;2022-07-17T02:28:19;102303.72;;;12.91;85.48
65190;BME280;51777;53.570;9.984;2022-07-17T02:30:44;102303.72;;;12.91;85.70
65190;BME280;51777;53.570;9.984;2022-07-17T02:33:10;102310.16;;;12.97;84.93
65190;BME280;51777;53.570;9.984;2022-07-17T02:35:35;102311.94;;;12.97;84.93
65190;BME280;51777;53.570;9.984;2022-07-17T02:38:00;102321.72;;;13.04;84.98
65190;BME280;51777;53.570;9.984;2022-07-17T02:40:26;102327.38;;;13.09;83.98
65190;BME280;51777;53.570;9.984;2022-07-17T02:42:51;102333.50;;;13.19;84.16
65190;BME280;51777;53.570;9.984;2022-07-17T02:45:17;102329.97;;;13.09;83.44
65190;BME280;51777;53.570;9.984;2022-07-17T02:47:46;102335.72;;;13.13;83.95
65190;BME280;51777;53.570;9.984;2022-07-17T02:50:12;102326.53;;;13.20;83.46
65190;BME280;51777;53.570;9.984;2022-07-17T02:52:37;102337.16;;;13.28;83.20
65190;BME280;51777;53.570;9.984;2022-07-17T02:55:04;102333.59;;;13.29;82.92
65190;BME280;51777;53.570;9.984;2022-07-17T02:57:29;102333.91;;;13.36;82.95
65190;BME280;51777;53.570;9.984;2022-07-17T02:59:55;102343.59;;;13.34;82.48
65190;BME280;51777;53.570;9.984;2022-07-17T03:02:20;102344.78;;;13.41;82.57
65190;BME280;51777;53.570;9.984;2022-07-17T03:04:45;102351.84;;;13.39;82.56
65190;BME280;51777;53.570;9.984;2022-07-17T03:07:11;102355.53;;;13.36;82.40
65190;BME280;51777;53.570;9.984;2022-07-17T03:09:36;102358.59;;;13.41;82.61
65190;BME280;51777;53.570;9.984;2022-07-17T03:12:02;102360.69;;;13.47;82.12
65190;BME280;51777;53.570;9.984;2022-07-17T03:14:27;102360.41;;;13.50;82.36
65190;BME280;51777;53.570;9.984;2022-07-17T03:16:53;102359.47;;;13.51;81.88
65190;BME280;51777;53.570;9.984;2022-07-17T03:19:18;102355.00;;;13.54;82.14
65190;BME280;51777;53.570;9.984;2022-07-17T03:21:44;102352.69;;;13.60;82.18
65190;BME280;51777;53.570;9.984;2022-07-17T03:24:09;102350.81;;;13.62;81.60
65190;BME280;51777;53.570;9.984;2022-07-17T03:26:34;102349.50;;;13.68;81.81
65190;BME280;51777;53.570;9.984;2022-07-17T03:29:00;102338.63;;;13.63;81.26
65190;BME280;51777;53.570;9.984;2022-07-17T03:31:25;102331.28;;;13.68;81.68
65190;BME280;51777;53.570;9.984;2022-07-17T03:33:51;102329.06;;;13.63;80.93
65190;BME280;51777;53.570;9.984;2022-07-17T03:36:16;102319.88;;;13.59;80.81
65190;BME280;51777;53.570;9.984;2022-07-17T03:38:41;102317.00;;;13.62;81.07
65190;BME280;51777;53.570;9.984;2022-07-17T03:41:07;102311.94;;;13.61;80.81
65190;BME280;51777;53.570;9.984;2022-07-17T03:43:32;102311.94;;;13.61;80.86
65190;BME280;51777;53.570;9.984;2022-07-17T03:45:57;102316.19;;;13.62;81.07
65190;BME280;51777;53.570;9.984;2022-07-17T03:48:23;102318.78;;;13.62;81.09
65190;BME280;51777;53.570;9.984;2022-07-17T03:50:48;102336.03;;;13.63;80.95
65190;BME280;51777;53.570;9.984;2022-07-17T03:53:13;102337.09;;;13.60;81.31
65190;BME280;51777;53.570;9.984;2022-07-17T03:55:39;102338.00;;;13.70;81.50
65190;BME280;51777;53.570;9.984;2022-07-17T03:58:04;102346.63;;;13.71;81.33
65190;BME280;51777;53.570;9.984;2022-07-17T04:00:29;102348.94;;;13.64;81.75
65190;BME280;51777;53.570;9.984;2022-07-17T04:02:55;102365.25;;;13.76;81.64
65190;BME280;51777;53.570;9.984;2022-07-17T04:05:20;102364.78;;;13.82;81.72
65190;BME280;51777;53.570;9.984;2022-07-17T04:07:46;102363.31;;;13.89;81.65
65190;BME280;51777;53.570;9.984;2022-07-17T04:10:13;102354.19;;;13.95;81.30
65190;BME280;51777;53.570;9.984;2022-07-17T04:12:39;102361.84;;;13.96;80.80
65190;BME280;51777;53.570;9.984;2022-07-17T04:15:05;102364.16;;;13.90;81.35
65190;BME280;51777;53.570;9.984;2022-07-17T04:17:31;102349.94;;;13.94;81.51
65190;BME280;51777;53.570;9.984;2022-07-17T04:19:57;102355.81;;;13.96;81.18
65190;BME280;51777;53.570;9.984;2022-07-17T04:22:23;102363.88;;;13.93;80.48
65190;BME280;51777;53.570;9.984;2022-07-17T04:24:48;102358.03;;;14.00;81.31
65190;BME280;51777;53.570;9.984;2022-07-17T04:27:14;102360.00;;;14.08;80.42
65190;BME280;51777;53.570;9.984;2022-07-17T04:29:40;102353.41;;;14.04;80.09
65190;BME280;51777;53.570;9.984;2022-07-17T04:32:06;102352.53;;;13.94;80.17
65190;BME280;51777;53.570;9.984;2022-07-17T04:34:32;102356.22;;;13.91;79.89
65190;BME280;51777;53.570;9.984;2022-07-17T04:36:58;102352.66;;;13.92;80.54
65190;BME280;51777;53.570;9.984;2022-07-17T04:39:24;102350.94;;;14.02;80.47
65190;BME280;51777;53.570;9.984;2022-07-17T04:41:50;102360.81;;;14.08;79.48
65190;BME280;51777;53.570;9.984;2022-07-17T04:44:15;102346.50;;;14.14;79.46
65190;BME280;51777;53.570;9.984;2022-07-17T04:46:41;102348.88;;;14.27;78.60
65190;BME280;51777;53.570;9.984;2022-07-17T04:49:06;102345.06;;;14.31;78.97
65190;BME280;51777;53.570;9.984;2022-07-17T04:51:31;102340.34;;;14.25;78.47
65190;BME280;51777;53.570;9.984;2022-07-17T04:53:57;102336.38;;;14.21;78.85
65190;BME280;51777;53.570;9.984;2022-07-17T04:56:22;102342.84;;;14.26;79.08
65190;BME280;51777;53.570;9.984;2022-07-17T04:58:47;102346.69;;;14.32;78.72
65190;BME280;51777;53.570;9.984;2022-07-17T05:01:14;102346.44;;;14.35;78.58
65190;BME280;51777;53.570;9.984;2022-07-17T05:03:39;102342.00;;;14.26;78.95
65190;BME280;51777;53.570;9.984;2022-07-17T05:06:05;102337.88;;;14.23;78.98
65190;BME280;51777;53.570;9.984;2022-07-17T05:08:31;102342.88;;;14.36;79.28
65190;BME280;51777;53.570;9.984;2022-07-17T05:10:56;102340.34;;;14.25;79.21
65190;BME280;51777;53.570;9.984;2022-07-17T05:13:22;102350.00;;;14.34;79.38
65190;BME280;51777;53.570;9.984;2022-07-17T05:15:47;102350.66;;;14.57;79.19
65190;BME280;51777;53.570;9.984;2022-07-17T05:18:14;102339.28;;;14.58;77.90
65190;BME280;51777;53.570;9.984;2022-07-17T05:20:40;102340.00;;;14.69;77.38
65190;BME280;51777;53.570;9.984;2022-07-17T05:23:05;102336.19;;;14.74;77.47
65190;BME280;51777;53.570;9.984;2022-07-17T05:25:31;102348.81;;;14.88;77.23
65190;BME280;51777;53.570;9.984;2022-07-17T05:27:57;102357.88;;;14.84;76.04
65190;BME280;51777;53.570;9.984;2022-07-17T05:30:22;102360.91;;;14.89;76.90
65190;BME280;51777;53.570;9.984;2022-07-17T05:32:48;102366.66;;;14.92;76.21
65190;BME280;51777;53.570;9.984;2022-07-17T05:35:13;102376.78;;;14.86;76.31
65190;BME280;51777;53.570;9.984;2022-07-17T05:37:39;102378.44;;;14.87;76.29
65190;BME280;51777;53.570;9.984;2022-07-17T05:40:05;102369.41;;;15.01;76.73
65190;BME280;51777;53.570;9.984;2022-07-17T05:42:30;102371.06;;;15.02;75.31
65190;BME280;51777;53.570;9.984;2022-07-17T05:44:56;102367.75;;;14.99;75.31
65190;BME280;51777;53.570;9.984;2022-07-17T05:47:21;102361.88;;;15.07;74.96
65190;BME280;51777;53.570;9.984;2022-07-17T05:49:46;102361.63;;;15.20;74.66
65190;BME280;51777;53.570;9.984;2022-07-17T05:52:12;102357.09;;;15.32;74.23
65190;BME280;51777;53.570;9.984;2022-07-17T05:54:37;102356.28;;;15.41;72.97
65190;BME280;51777;53.570;9.984;2022-07-17T05:57:03;102350.81;;;15.44;73.40
65190;BME280;51777;53.570;9.984;2022-07-17T05:59:29;102362.03;;;15.35;73.03
65190;BME280;51777;53.570;9.984;2022-07-17T06:01:54;102369.47;;;15.39;73.37
65190;BME280;51777;53.570;9.984;2022-07-17T06:04:20;102370.28;;;15.40;73.04
65190;BME280;51777;53.570;9.984;2022-07-17T06:06:45;102364.38;;;15.57;73.60
65190;BME280;51777;53.570;9.984;2022-07-17T06:09:11;102371.94;;;15.79;72.18
65190;BME280;51777;53.570;9.984;2022-07-17T06:11:36;102380.00;;;16.05;71.45
65190;BME280;51777;53.570;9.984;2022-07-17T06:14:02;102383.31;;;16.35;70.61
65190;BME280;51777;53.570;9.984;2022-07-17T06:16:27;102379.00;;;16.53;69.18
65190;BME280;51777;53.570;9.984;2022-07-17T06:18:53;102385.06;;;16.54;68.41
65190;BME280;51777;53.570;9.984;2022-07-17T06:21:18;102384.94;;;16.45;68.57
65190;BME280;51777;53.570;9.984;2022-07-17T06:23:43;102387.81;;;16.52;68.60
65190;BME280;51777;53.570;9.984;2022-07-17T06:26:09;102392.03;;;16.63;68.48
65190;BME280;51777;53.570;9.984;2022-07-17T06:28:34;102397.25;;;16.63;67.09
65190;BME280;51777;53.570;9.984;2022-07-17T06:31:00;102405.09;;;16.63;67.15
65190;BME280;51777;53.570;9.984;2022-07-17T06:33:26;102401.34;;;16.65;66.71
65190;BME280;51777;53.570;9.984;2022-07-17T06:35:51;102402.19;;;16.66;67.13
65190;BME280;51777;53.570;9.984;2022-07-17T06:38:17;102407.00;;;16.70;66.90
65190;BME280;51777;53.570;9.984;2022-07-17T06:40:42;102405.75;;;16.75;66.22
65190;BME280;51777;53.570;9.984;2022-07-17T06:43:07;102400.91;;;16.42;67.31
65190;BME280;51777;53.570;9.984;2022-07-17T06:45:33;102396.38;;;16.35;68.09
65190;BME280;51777;53.570;9.984;2022-07-17T06:47:58;102399.50;;;16.48;67.56
65190;BME280;51777;53.570;9.984;2022-07-17T06:50:24;102411.25;;;16.62;67.20
65190;BME280;51777;53.570;9.984;2022-07-17T06:52:49;102415.66;;;16.71;66.27
65190;BME280;51777;53.570;9.984;2022-07-17T06:55:15;102414.72;;;16.62;66.57
65190;BME280;51777;53.570;9.984;2022-07-17T06:57:41;102417.88;;;16.56;66.41
65190;BME280;51777;53.570;9.984;2022-07-17T07:00:07;102420.13;;;16.51;66.84
65190;BME280;51777;53.570;9.984;2022-07-17T07:02:34;102427.06;;;16.60;66.32
65190;BME280;51777;53.570;9.984;2022-07-17T07:04:59;102419.56;;;16.48;66.52
65190;BME280;51777;53.570;9.984;2022-07-17T07:07:24;102430.59;;;16.41;67.15
65190;BME280;51777;53.570;9.984;2022-07-17T07:09:50;102417.81;;;16.38;67.45
65190;BME280;51777;53.570;9.984;2022-07-17T07:12:15;102424.31;;;16.71;67.31
65190;BME280;51777;53.570;9.984;2022-07-17T07:14:41;102424.28;;;16.81;66.11
65190;BME280;51777;53.570;9.984;2022-07-17T07:17:06;102435.06;;;16.96;66.16
65190;BME280;51777;53.570;9.984;2022-07-17T07:19:31;102428.34;;;16.93;65.88
65190;BME280;51777;53.570;9.984;2022-07-17T07:21:57;102423.63;;;16.69;66.46
65190;BME280;51777;53.570;9.984;2022-07-17T07:24:22;102420.47;;;16.66;67.15
65190;BME280;51777;53.570;9.984;2022-07-17T07:26:48;102416.31;;;16.73;68.11
65190;BME280;51777;53.570;9.984;2022-07-17T07:29:14;102415.53;;;17.00;67.12
65190;BME280;51777;53.570;9.984;2022-07-17T07:31:39;102415.63;;;17.26;65.90
65190;BME280;51777;53.570;9.984;2022-07-17T07:34:04;102427.28;;;17.49;64.94
65190;BME280;51777;53.570;9.984;2022-07-17T07:36:30;102435.53;;;17.72;63.96
65190;BME280;51777;53.570;9.984;2022-07-17T07:38:55;102439.47;;;17.94;63.92
65190;BME280;51777;53.570;9.984;2022-07-17T07:41:21;102440.63;;;18.17;62.73
65190;BME280;51777;53.570;9.984;2022-07-17T07:43:46;102451.25;;;18.42;62.02
65190;BME280;51777;53.570;9.984;2022-07-17T07:46:11;102454.34;;;18.71;60.63
65190;BME280;51777;53.570;9.984;2022-07-17T07:48:37;102456.91;;;18.97;58.78
65190;BME280;51777;53.570;9.984;2022-07-17T07:51:02;102447.47;;;19.21;58.40
65190;BME280;51777;53.570;9.984;2022-07-17T07:53:28;102448.34;;;19.38;58.23
65190;BME280;51777;53.570;9.984;2022-07-17T07:55:53;102447.22;;;19.40;58.23
65190;BME280;51777;53.570;9.984;2022-07-17T07:58:19;102443.94;;;19.54;57.95
65190;BME280;51777;53.570;9.984;2022-07-17T08:00:44;102452.84;;;19.61;57.58
65190;BME280;51777;53.570;9.984;2022-07-17T08:03:10;102451.88;;;19.87;57.14
65190;BME280;51777;53.570;9.984;2022-07-17T08:05:36;102458.41;;;20.15;56.25
65190;BME280;51777;53.570;9.984;2022-07-17T08:08:02;102462.19;;;20.05;56.16
65190;BME280;51777;53.570;9.984;2022-07-17T08:10:28;102461.88;;;19.91;55.50
65190;BME280;51777;53.570;9.984;2022-07-17T08:12:57;102461.19;;;20.14;54.99
65190;BME280;51777;53.570;9.984;2022-07-17T08:15:23;102471.06;;;21.68;51.88
65190;BME280;51777;53.570;9.984;2022-07-17T08:17:50;102477.75;;;23.05;48.66
65190;BME280;51777;53.570;9.984;2022-07-17T08:20:17;102484.00;;;21.78;47.96
65190;BME280;51777;53.570;9.984;2022-07-17T08:22:44;102482.81;;;20.57;51.81
65190;BME280;51777;53.570;9.984;2022-07-17T08:25:10;102479.88;;;20.27;53.47
65190;BME280;51777;53.570;9.984;2022-07-17T08:27:37;102494.06;;;21.75;49.98
65190;BME280;51777;53.570;9.984;2022-07-17T08:30:04;102494.53;;;21.78;49.54
65190;BME280;51777;53.570;9.984;2022-07-17T08:32:30;102497.19;;;21.93;49.27
65190;BME280;51777;53.570;9.984;2022-07-17T08:34:56;102498.41;;;23.38;44.27
65190;BME280;51777;53.570;9.984;2022-07-17T08:37:21;102498.34;;;23.53;43.17
65190;BME280;51777;53.570;9.984;2022-07-17T08:39:47;102499.31;;;24.16;43.73
65190;BME280;51777;53.570;9.984;2022-07-17T08:42:12;102491.31;;;23.81;43.07
65190;BME280;51777;53.570;9.984;2022-07-17T08:44:42;102506.75;;;23.20;44.25
65190;BME280;51777;53.570;9.984;2022-07-17T08:47:07;102500.03;;;22.44;44.53
65190;BME280;51777;53.570;9.984;2022-07-17T08:49:35;102501.97;;;23.30;44.83
65190;BME280;51777;53.570;9.984;2022-07-17T08:52:04;102502.50;;;24.67;41.45
65190;BME280;51777;53.570;9.984;2022-07-17T08:54:30;102491.78;;;24.13;41.61
65190;BME280;51777;53.570;9.984;2022-07-17T08:56:57;102504.91;;;23.78;42.53
65190;BME280;51777;53.570;9.984;2022-07-17T08:59:22;102507.84;;;23.26;44.67
65190;BME280;51777;53.570;9.984;2022-07-17T09:01:48;102506.34;;;22.58;45.47
65190;BME280;51777;53.570;9.984;2022-07-17T09:04:13;102511.16;;;22.54;46.22
65190;BME280;51777;53.570;9.984;2022-07-17T09:06:38;102500.13;;;22.21;47.03
65190;BME280;51777;53.570;9.984;2022-07-17T09:09:06;102508.63;;;21.85;47.14
65190;BME280;51777;53.570;9.984;2022-07-17T09:11:42;102505.34;;;22.73;45.91
65190;BME280;51777;53.570;9.984;2022-07-17T09:14:08;102502.84;;;23.95;43.51
65190;BME280;51777;53.570;9.984;2022-07-17T09:16:50;102507.63;;;24.69;41.05
65190;BME280;51777;53.570;9.984;2022-07-17T09:19:30;102501.41;;;24.89;39.49
65190;BME280;51777;53.570;9.984;2022-07-17T09:22:10;102514.38;;;25.26;41.06
65190;BME280;51777;53.570;9.984;2022-07-17T09:27:29;102510.78;;;25.60;38.99
65190;BME280;51777;53.570;9.984;2022-07-17T09:32:44;102512.91;;;26.88;36.28
65190;BME280;51777;53.570;9.984;2022-07-17T09:35:11;102513.09;;;26.93;33.52
65190;BME280;51777;53.570;9.984;2022-07-17T09:37:37;102505.72;;;26.96;35.15
65190;BME280;51777;53.570;9.984;2022-07-17T09:40:11;102514.66;;;26.50;34.89
65190;BME280;51777;53.570;9.984;2022-07-17T09:42:57;102520.63;;;25.86;36.04
65190;BME280;51777;53.570;9.984;2022-07-17T09:45:22;102514.91;;;26.15;35.46
65190;BME280;51777;53.570;9.984;2022-07-17T09:47:48;102513.63;;;26.57;34.72
65190;BME280;51777;53.570;9.984;2022-07-17T09:50:14;102519.72;;;26.64;34.46
65190;BME280;51777;53.570;9.984;2022-07-17T09:52:41;102512.13;;;26.75;34.17
65190;BME280;51777;53.570;9.984;2022-07-17T09:55:07;102510.06;;;27.28;33.78
65190;BME280;51777;53.570;9.984;2022-07-17T09:57:34;102514.91;;;27.00;34.62
65190;BME280;51777;53.570;9.984;2022-07-17T10:00:05;102507.94;;;26.27;35.93
65190;BME280;51777;53.570;9.984;2022-07-17T10:02:43;102518.56;;;26.27;36.33
65190;BME280;51777;53.570;9.984;2022-07-17T10:05:10;102508.06;;;26.72;34.75
65190;BME280;51777;53.570;9.984;2022-07-17T10:07:39;102509.09;;;27.23;33.96
65190;BME280;51777;53.570;9.984;2022-07-17T10:10:07;102522.22;;;27.11;33.65
65190;BME280;51777;53.570;9.984;2022-07-17T10:12:34;102502.47;;;27.63;30.98
65190;BME280;51777;53.570;9.984;2022-07-17T10:15:01;102509.75;;;27.81;32.81
65190;BME280;51777;53.570;9.984;2022-07-17T10:17:27;102515.81;;;27.88;32.43
65190;BME280;51777;53.570;9.984;2022-07-17T10:19:54;102507.22;;;27.86;32.90
65190;BME280;51777;53.570;9.984;2022-07-17T10:22:20;102508.88;;;27.56;32.26
65190;BME280;51777;53.570;9.984;2022-07-17T10:24:48;102513.53;;;26.84;33.78
65190;BME280;51777;53.570;9.984;2022-07-17T10:27:28;102505.09;;;26.35;34.45
65190;BME280;51777;53.570;9.984;2022-07-17T10:30:10;102507.63;;;27.58;32.96
65190;BME280;51777;53.570;9.984;2022-07-17T10:32:37;102496.94;;;28.15;31.63
65190;BME280;51777;53.570;9.984;2022-07-17T10:35:10;102505.34;;;28.91;29.73
65190;BME280;51777;53.570;9.984;2022-07-17T10:48:14;102515.91;;;30.52;27.47
65190;BME280;51777;53.570;9.984;2022-07-17T10:50:43;102513.94;;;30.87;27.30
65190;BME280;51777;53.570;9.984;2022-07-17T10:53:11;102499.59;;;31.05;27.00
65190;BME280;51777;53.570;9.984;2022-07-17T10:55:45;102503.66;;;30.16;27.46
65190;BME280;51777;53.570;9.984;2022-07-17T10:58:30;102503.13;;;29.60;28.36
65190;BME280;51777;53.570;9.984;2022-07-17T11:03:41;102507.63;;;30.77;26.55
65190;BME280;51777;53.570;9.984;2022-07-17T11:06:15;102510.22;;;31.29;26.37
65190;BME280;51777;53.570;9.984;2022-07-17T11:16:45;102495.22;;;32.33;25.06
65190;BME280;51777;53.570;9.984;2022-07-17T11:19:12;102501.66;;;32.81;24.42
65190;BME280;51777;53.570;9.984;2022-07-17T11:21:48;102497.94;;;33.09;23.80
65190;BME280;51777;53.570;9.984;2022-07-17T11:24:14;102495.53;;;33.72;24.36
65190;BME280;51777;53.570;9.984;2022-07-17T11:26:41;102508.66;;;34.63;23.22
65190;BME280;51777;53.570;9.984;2022-07-17T11:29:07;102501.38;;;34.68;22.64
65190;BME280;51777;53.570;9.984;2022-07-17T11:31:33;102502.00;;;34.18;23.81
65190;BME280;51777;53.570;9.984;2022-07-17T11:34:00;102503.31;;;34.78;22.76
65190;BME280;51777;53.570;9.984;2022-07-17T11:36:33;102506.88;;;33.84;23.29
65190;BME280;51777;53.570;9.984;2022-07-17T11:39:04;102508.75;;;33.83;23.78
65190;BME280;51777;53.570;9.984;2022-07-17T11:41:43;102499.25;;;33.66;23.38
65190;BME280;51777;53.570;9.984;2022-07-17T11:44:10;102500.69;;;33.78;23.59
65190;BME280;51777;53.570;9.984;2022-07-17T11:46:38;102499.78;;;33.68;22.96
65190;BME280;51777;53.570;9.984;2022-07-17T11:49:05;102501.31;;;33.91;23.50
65190;BME280;51777;53.570;9.984;2022-07-17T11:51:38;102504.38;;;34.82;22.70
65190;BME280;51777;53.570;9.984;2022-07-17T11:54:10;102512.56;;;35.48;21.68
65190;BME280;51777;53.570;9.984;2022-07-17T11:56:36;102495.84;;;35.46;21.90
65190;BME280;51777;53.570;9.984;2022-07-17T11:59:02;102500.44;;;35.56;21.98
65190;BME280;51777;53.570;9.984;2022-07-17T12:01:36;102507.63;;;35.96;21.57
65190;BME280;51777;53.570;9.984;2022-07-17T12:04:02;102503.38;;;35.09;21.44
65190;BME280;51777;53.570;9.984;2022-07-17T12:06:28;102498.66;;;36.21;21.05
65190;BME280;51777;53.570;9.984;2022-07-17T12:08:54;102501.00;;;36.97;20.57
65190;BME280;51777;53.570;9.984;2022-07-17T12:11:19;102504.97;;;37.05;19.93
65190;BME280;51777;53.570;9.984;2022-07-17T12:13:46;102500.94;;;35.78;21.55
65190;BME280;51777;53.570;9.984;2022-07-17T12:16:27;102499.59;;;34.22;22.67
65190;BME280;51777;53.570;9.984;2022-07-17T12:19:05;102511.16;;;35.81;21.77
65190;BME280;51777;53.570;9.984;2022-07-17T12:21:46;102503.69;;;36.48;20.58
65190;BME280;51777;53.570;9.984;2022-07-17T12:24:18;102508.78;;;35.24;21.45
65190;BME280;51777;53.570;9.984;2022-07-17T12:26:44;102496.63;;;34.23;23.08
65190;BME280;51777;53.570;9.984;2022-07-17T12:29:09;102500.13;;;34.91;22.07
65190;BME280;51777;53.570;9.984;2022-07-17T12:31:34;102499.63;;;35.15;21.95
65190;BME280;51777;53.570;9.984;2022-07-17T12:34:00;102496.78;;;34.59;22.59
65190;BME280;51777;53.570;9.984;2022-07-17T12:36:25;102495.22;;;34.63;22.66
65190;BME280;51777;53.570;9.984;2022-07-17T12:38:51;102491.53;;;33.74;22.91
65190;BME280;51777;53.570;9.984;2022-07-17T12:41:16;102504.47;;;35.28;20.93
65190;BME280;51777;53.570;9.984;2022-07-17T12:43:43;102498.97;;;36.14;20.80
65190;BME280;51777;53.570;9.984;2022-07-17T12:46:08;102499.28;;;37.07;20.19
65190;BME280;51777;53.570;9.984;2022-07-17T12:48:34;102502.53;;;37.67;18.78
65190;BME280;51777;53.570;9.984;2022-07-17T12:51:02;102500.50;;;38.30;18.73
65190;BME280;51777;53.570;9.984;2022-07-17T12:53:27;102498.97;;;38.62;18.42
65190;BME280;51777;53.570;9.984;2022-07-17T12:55:53;102502.28;;;38.96;17.93
65190;BME280;51777;53.570;9.984;2022-07-17T12:58:18;102504.22;;;39.42;17.69
65190;BME280;51777;53.570;9.984;2022-07-17T13:00:45;102494.44;;;38.38;18.46
65190;BME280;51777;53.570;9.984;2022-07-17T13:03:10;102488.75;;;38.40;18.16
65190;BME280;51777;53.570;9.984;2022-07-17T13:05:36;102491.09;;;38.84;17.89
65190;BME280;51777;53.570;9.984;2022-07-17T13:08:01;102496.16;;;39.70;16.92
65190;BME280;51777;53.570;9.984;2022-07-17T13:10:28;102483.81;;;40.05;16.67
65190;BME280;51777;53.570;9.984;2022-07-17T13:12:53;102491.91;;;39.17;15.88
65190;BME280;51777;53.570;9.984;2022-07-17T13:15:19;102480.88;;;37.77;17.25